Abadan, Iran
Current Conditions -  °F | °C
As of 9:00 PM on Sunday 23 Nov 2014 (Local Time) from OIAA Reporting Station
Scattered Clouds Scattered Clouds  
Wind Chill: 66°   Ceiling: Unl
Heat Index: 66°   Visibility: 6mi
Dew Point: 52°   Wind: 5mph
Humidity: 60%   Direction: 330°NNW
Pressure: 29.94"   Gusts: NA
Location:  30.33°N, 48.28°E
Report Text: OIAA 231700Z 33004KT 9999 FEW040 SCT100 19/11 Q1014
Loading
Personal Weather Stations






























Interactive Weather Map New forecast layout! Learn more

10-Day Weather Forecast

Advertisements
Track Severe Weather on mobile